createdAt,value
2019-05-14T00:00:22.595Z,99.90
2019-05-14T00:02:52.030Z,99.90
2019-05-14T00:05:21.595Z,99.90
2019-05-14T00:07:51.968Z,99.90
2019-05-14T00:10:18.996Z,99.90
2019-05-14T00:12:46.788Z,99.90
2019-05-14T00:15:14.563Z,99.90
2019-05-14T00:17:42.328Z,99.90
2019-05-14T00:20:13.303Z,99.90
2019-05-14T00:22:41.659Z,99.90
2019-05-14T00:25:11.479Z,99.90
2019-05-14T00:27:41.272Z,99.90
2019-05-14T00:30:08.831Z,99.90
2019-05-14T00:32:36.629Z,99.90
2019-05-14T00:35:04.580Z,99.90
2019-05-14T00:37:32.344Z,99.90
2019-05-14T00:40:01.298Z,99.90
2019-05-14T00:42:31.781Z,99.90
2019-05-14T00:45:01.072Z,99.90
2019-05-14T00:47:30.890Z,99.90
2019-05-14T00:49:58.241Z,99.90
2019-05-14T00:52:26.007Z,99.90
2019-05-14T00:54:53.791Z,99.90
2019-05-14T00:57:21.567Z,99.90
2019-05-14T00:59:49.364Z,99.90
2019-05-14T01:02:17.143Z,99.90
2019-05-14T01:04:45.238Z,99.90
2019-05-14T01:07:13.009Z,99.90
2019-05-14T01:09:42.091Z,99.90
2019-05-14T01:12:12.205Z,99.90
2019-05-14T01:14:42.119Z,99.90
2019-05-14T01:17:11.308Z,99.90
2019-05-14T01:19:39.059Z,99.90
2019-05-14T01:22:06.844Z,99.90
2019-05-14T01:24:34.607Z,99.90
2019-05-14T01:27:02.400Z,99.90
2019-05-14T01:29:31.633Z,99.90
2019-05-14T01:32:01.260Z,99.90
2019-05-14T01:34:29.251Z,99.90
2019-05-14T01:36:57.275Z,99.90
2019-05-14T01:39:25.531Z,99.90
2019-05-14T01:41:53.322Z,99.90
2019-05-14T01:44:21.457Z,99.90
2019-05-14T01:46:51.272Z,99.90
2019-05-14T01:49:18.958Z,99.90
2019-05-14T01:51:46.776Z,99.90
2019-05-14T01:54:14.535Z,99.90
2019-05-14T01:56:42.610Z,99.90
2019-05-14T01:59:12.133Z,99.90
2019-05-14T02:01:41.540Z,99.90
2019-05-14T02:04:11.651Z,99.90
2019-05-14T02:06:41.323Z,99.90
2019-05-14T02:09:10.976Z,99.90
2019-05-14T02:11:38.407Z,99.90
2019-05-14T02:14:06.348Z,99.90
2019-05-14T02:16:34.137Z,99.90
2019-05-14T02:19:01.897Z,99.90
2019-05-14T02:21:31.751Z,99.90
2019-05-14T02:23:59.244Z,99.90
2019-05-14T02:26:27.044Z,99.90
2019-05-14T02:28:54.807Z,99.90
2019-05-14T02:31:22.580Z,99.90
2019-05-14T02:33:50.790Z,99.90
2019-05-14T02:36:19.419Z,99.90
2019-05-14T02:38:49.328Z,99.90
2019-05-14T02:41:19.675Z,99.90
2019-05-14T02:43:49.902Z,99.90
2019-05-14T02:46:18.642Z,99.90
2019-05-14T02:48:48.944Z,99.90
2019-05-14T02:51:15.311Z,99.90
2019-05-14T02:53:43.084Z,99.90
2019-05-14T02:56:10.936Z,99.90
2019-05-14T02:58:40.142Z,99.90
2019-05-14T03:01:09.492Z,99.90
2019-05-14T03:03:40.129Z,99.90
2019-05-14T03:06:09.424Z,99.90
2019-05-14T03:08:39.067Z,99.90
2019-05-14T03:11:09.497Z,99.90
2019-05-14T03:13:39.748Z,99.90
2019-05-14T03:16:22.542Z,99.90
2019-05-14T03:18:35.437Z,99.90
2019-05-14T03:21:03.188Z,99.90
2019-05-14T03:23:30.969Z,99.90
2019-05-14T03:26:00.366Z,99.90
2019-05-14T03:28:30.310Z,99.90
2019-05-14T03:31:02.654Z,99.90
2019-05-14T03:33:32.278Z,99.90
2019-05-14T03:36:06.331Z,99.90
2019-05-14T03:38:29.358Z,99.90
2019-05-14T03:40:56.240Z,99.90
2019-05-14T03:43:24.116Z,99.90
2019-05-14T03:45:51.883Z,99.90
2019-05-14T03:48:19.668Z,99.90
2019-05-14T03:50:49.503Z,99.90
2019-05-14T03:53:18.924Z,99.90
2019-05-14T03:55:49.921Z,99.90
2019-05-14T03:58:21.132Z,99.90
2019-05-14T04:00:51.388Z,99.90
2019-05-14T04:03:20.065Z,99.90
2019-05-14T04:05:49.405Z,99.90
2019-05-14T04:08:21.407Z,99.90
2019-05-14T04:10:53.494Z,99.90
2019-05-14T04:13:19.871Z,99.90
2019-05-14T04:15:49.786Z,99.90
2019-05-14T04:18:19.379Z,99.90
2019-05-14T04:20:50.128Z,99.90
2019-05-14T04:23:19.916Z,99.90
2019-05-14T04:25:50.112Z,99.90
2019-05-14T04:28:19.539Z,99.90
2019-05-14T04:30:49.508Z,99.90
2019-05-14T04:33:19.209Z,99.90
2019-05-14T04:35:49.096Z,99.90
2019-05-14T04:38:19.980Z,99.90
2019-05-14T04:40:49.189Z,99.90
2019-05-14T04:43:19.060Z,99.90
2019-05-14T04:45:45.675Z,99.90
2019-05-14T04:48:27.298Z,99.90
2019-05-14T04:50:42.968Z,99.90
2019-05-14T04:53:10.733Z,99.90
2019-05-14T04:55:40.053Z,99.90
2019-05-14T04:58:10.036Z,99.90
2019-05-14T05:00:39.155Z,99.90
2019-05-14T05:03:11.707Z,99.90
2019-05-14T05:05:39.320Z,99.90
2019-05-14T05:08:08.849Z,99.90
2019-05-14T05:10:35.699Z,99.90
2019-05-14T05:13:03.501Z,99.90
2019-05-14T05:15:31.273Z,99.90
2019-05-14T05:17:59.185Z,99.90
2019-05-14T05:20:29.199Z,99.90
2019-05-14T05:22:58.926Z,99.90
2019-05-14T05:25:25.994Z,99.90
2019-05-14T05:27:56.427Z,99.90
2019-05-14T05:30:23.296Z,99.90
2019-05-14T05:32:51.068Z,99.90
2019-05-14T05:35:18.843Z,99.90
2019-05-14T05:37:48.868Z,99.90
2019-05-14T05:40:16.232Z,99.90
2019-05-14T05:42:44.012Z,99.90
2019-05-14T05:45:11.974Z,99.90
2019-05-14T05:47:54.093Z,99.90
2019-05-14T05:50:09.609Z,99.90
2019-05-14T05:52:38.797Z,99.90
2019-05-14T05:55:08.909Z,99.90
2019-05-14T05:57:39.180Z,99.90
2019-05-14T06:00:09.407Z,99.90
2019-05-14T06:02:39.618Z,99.90
2019-05-14T06:05:08.078Z,99.90
2019-05-14T06:07:36.103Z,99.90
2019-05-14T06:10:04.431Z,99.90
2019-05-14T06:12:32.216Z,99.90
2019-05-14T06:14:59.995Z,99.90
2019-05-14T06:17:28.548Z,99.90
2019-05-14T06:19:56.449Z,99.90
2019-05-14T06:22:24.364Z,99.90
2019-05-14T06:24:52.621Z,99.90
2019-05-14T06:27:20.407Z,99.90
2019-05-14T06:29:48.896Z,99.90
2019-05-14T06:32:18.751Z,99.90
2019-05-14T06:34:48.860Z,99.90
2019-05-14T06:37:16.211Z,99.90
2019-05-14T06:39:44.092Z,99.90
2019-05-14T06:42:11.931Z,99.90
2019-05-14T06:44:39.788Z,99.90
2019-05-14T06:47:09.355Z,99.90
2019-05-14T06:49:38.521Z,99.90
2019-05-14T06:52:08.662Z,99.90
2019-05-14T06:54:38.463Z,99.90
2019-05-14T06:57:05.648Z,99.90
2019-05-14T06:59:33.419Z,99.90
2019-05-14T07:02:01.203Z,99.90
2019-05-14T07:04:29.343Z,99.90
2019-05-14T07:06:59.039Z,99.90
2019-05-14T07:09:28.762Z,99.90
2019-05-14T07:11:58.324Z,99.90
2019-05-14T07:14:28.100Z,99.90
2019-05-14T07:16:55.184Z,99.90
2019-05-14T07:19:23.219Z,99.90
2019-05-14T07:21:51.009Z,99.90
2019-05-14T07:24:19.426Z,99.90
2019-05-14T07:26:49.316Z,99.90
2019-05-14T07:29:18.648Z,99.90
2019-05-14T07:31:48.825Z,99.90
2019-05-14T07:34:16.051Z,99.90
2019-05-14T07:36:44.061Z,99.90
2019-05-14T07:39:11.862Z,99.90
2019-05-14T07:41:42.728Z,99.90
2019-05-14T07:44:10.511Z,99.90
2019-05-14T07:46:39.049Z,99.90
2019-05-14T07:49:09.320Z,99.90
2019-05-14T07:51:38.595Z,99.90
2019-05-14T07:54:08.154Z,99.90
2019-05-14T07:56:35.432Z,99.90
2019-05-14T07:59:03.680Z,99.90
2019-05-14T08:01:31.457Z,99.90
2019-05-14T08:04:00.118Z,99.90
2019-05-14T08:06:28.238Z,99.90
2019-05-14T08:08:56.180Z,99.90
2019-05-14T08:11:24.271Z,99.90
2019-05-14T08:13:52.356Z,99.90
2019-05-14T08:16:20.131Z,99.90
2019-05-14T08:18:48.699Z,99.90
2019-05-14T08:21:19.051Z,99.90
2019-05-14T08:23:48.105Z,99.90
2019-05-14T08:26:18.794Z,99.90
2019-05-14T08:28:45.676Z,99.90
2019-05-14T08:31:13.763Z,99.90
2019-05-14T08:33:41.774Z,99.90
2019-05-14T08:36:09.600Z,99.90
2019-05-14T08:38:38.284Z,99.90
2019-05-14T08:41:08.408Z,99.90
2019-05-14T08:43:35.952Z,99.90
2019-05-14T08:46:03.949Z,99.90
2019-05-14T08:48:31.719Z,99.90
2019-05-14T08:50:59.489Z,99.90
2019-05-14T08:53:28.841Z,99.90
2019-05-14T08:55:58.872Z,99.90
2019-05-14T08:58:26.596Z,99.90
2019-05-14T09:00:55.237Z,99.90
2019-05-14T09:03:23.052Z,99.90
2019-05-14T09:05:50.827Z,99.90
2019-05-14T09:08:19.158Z,99.90
2019-05-14T09:10:49.731Z,99.90
2019-05-14T09:13:18.506Z,99.90
2019-05-14T09:15:48.727Z,99.90
2019-05-14T09:18:18.277Z,99.90
2019-05-14T09:20:45.544Z,99.90
2019-05-14T09:23:13.324Z,99.90
2019-05-14T09:25:47.382Z,99.90
2019-05-14T09:28:10.661Z,99.90
2019-05-14T09:30:38.703Z,99.90
2019-05-14T09:33:08.586Z,99.90
2019-05-14T09:35:38.441Z,99.90
2019-05-14T09:38:05.499Z,99.90
2019-05-14T09:40:33.295Z,99.90
2019-05-14T09:43:01.108Z,99.90
2019-05-14T09:45:28.895Z,99.90
2019-05-14T09:47:58.554Z,99.90
2019-05-14T09:50:29.016Z,99.90
2019-05-14T09:52:55.856Z,99.90
2019-05-14T09:55:23.681Z,99.90
2019-05-14T09:57:51.475Z,99.90
2019-05-14T10:00:19.509Z,99.90
2019-05-14T10:02:49.105Z,99.90
2019-05-14T10:05:19.007Z,99.90
2019-05-14T10:07:49.219Z,99.90
2019-05-14T10:10:19.384Z,99.90
2019-05-14T10:12:56.010Z,99.20
2019-05-14T10:15:15.414Z,98.80
2019-05-14T10:17:43.255Z,98.70
2019-05-14T10:20:11.045Z,97.80
2019-05-14T10:22:39.686Z,95.70
2019-05-14T10:25:09.183Z,96.50
2019-05-14T10:27:37.159Z,94.50
2019-05-14T10:30:05.796Z,95.80
2019-05-14T10:32:33.584Z,97.40
2019-05-14T10:35:01.407Z,97.50
2019-05-14T10:37:29.172Z,97.60
2019-05-14T10:39:58.601Z,97.50
2019-05-14T10:42:28.968Z,96.80
2019-05-14T10:44:58.532Z,96.20
2019-05-14T10:47:25.607Z,96.10
2019-05-14T10:49:53.403Z,96.30
2019-05-14T10:52:21.452Z,95.70
2019-05-14T10:54:55.768Z,96.00
2019-05-14T10:57:18.781Z,96.50
2019-05-14T10:59:46.581Z,96.50
2019-05-14T11:02:14.431Z,96.00
2019-05-14T11:04:42.224Z,96.00
2019-05-14T11:07:10.088Z,95.60
2019-05-14T11:09:38.258Z,94.70
2019-05-14T11:12:06.195Z,94.40
2019-05-14T11:14:33.967Z,93.80
2019-05-14T11:17:01.744Z,93.30
2019-05-14T11:19:29.519Z,92.10
2019-05-14T11:21:57.913Z,91.50
2019-05-14T11:24:25.860Z,90.90
2019-05-14T11:26:53.636Z,88.00
2019-05-14T11:29:21.416Z,87.70
2019-05-14T11:31:49.212Z,86.90
2019-05-14T11:34:19.335Z,86.80
2019-05-14T11:36:46.518Z,83.90
2019-05-14T11:39:14.276Z,85.50
2019-05-14T11:41:42.060Z,83.60
2019-05-14T11:44:09.851Z,81.30
2019-05-14T11:46:47.239Z,78.70
2019-05-14T11:49:08.878Z,78.60
2019-05-14T11:51:59.589Z,77.10
2019-05-14T11:54:09.236Z,76.40
2019-05-14T11:56:35.972Z,76.50
2019-05-14T11:59:03.872Z,75.80
2019-05-14T12:01:31.732Z,71.70
2019-05-14T12:03:59.867Z,68.40
2019-05-14T12:06:30.272Z,66.70
2019-05-14T12:08:58.255Z,65.70
2019-05-14T12:11:28.933Z,68.20
2019-05-14T12:13:55.636Z,68.60
2019-05-14T12:16:23.428Z,63.20
2019-05-14T12:18:51.216Z,63.50
2019-05-14T12:21:19.004Z,59.50
2019-05-14T12:23:46.927Z,56.50
2019-05-14T12:26:14.701Z,56.60
2019-05-14T12:28:42.572Z,57.50
2019-05-14T12:31:10.356Z,55.20
2019-05-14T12:33:39.631Z,54.60
2019-05-14T12:36:10.161Z,54.40
2019-05-14T12:38:38.272Z,53.30
2019-05-14T12:41:08.931Z,52.30
2019-05-14T12:43:35.753Z,50.90
2019-05-14T12:46:03.540Z,50.50
2019-05-14T12:48:31.328Z,50.20
2019-05-14T12:50:59.581Z,50.10
2019-05-14T12:53:28.780Z,50.70
2019-05-14T12:55:56.724Z,51.00
2019-05-14T12:58:24.513Z,52.40
2019-05-14T13:00:52.516Z,52.30
2019-05-14T13:03:20.329Z,52.90
2019-05-14T13:05:49.084Z,51.20
2019-05-14T13:08:18.524Z,51.80
2019-05-14T13:10:48.999Z,49.70
2019-05-14T13:13:16.015Z,48.70
2019-05-14T13:15:43.795Z,47.90
2019-05-14T13:18:11.581Z,48.40
2019-05-14T13:20:39.374Z,49.80
2019-05-14T13:23:09.978Z,49.50
2019-05-14T13:25:39.024Z,50.70
2019-05-14T13:28:08.810Z,50.10
2019-05-14T13:30:35.983Z,50.50
2019-05-14T13:33:03.773Z,50.90
2019-05-14T13:35:31.557Z,50.10
2019-05-14T13:37:59.339Z,51.00
2019-05-14T13:40:28.439Z,51.20
2019-05-14T13:42:56.396Z,52.00
2019-05-14T13:45:24.192Z,50.90
2019-05-14T13:47:51.991Z,51.50
2019-05-14T13:50:20.369Z,52.20
2019-05-14T13:53:01.984Z,51.90
2019-05-14T13:55:19.485Z,52.90
2019-05-14T13:57:48.725Z,51.80
2019-05-14T14:00:19.608Z,50.90
2019-05-14T14:02:46.443Z,49.90
2019-05-14T14:05:14.247Z,49.10
2019-05-14T14:07:44.600Z,47.30
2019-05-14T14:10:11.748Z,46.90
2019-05-14T14:12:40.630Z,47.50
2019-05-14T14:15:09.827Z,47.70
2019-05-14T14:17:39.177Z,48.50
2019-05-14T14:20:08.301Z,47.50
2019-05-14T14:22:39.488Z,48.10
2019-05-14T14:25:08.617Z,48.70
2019-05-14T14:27:35.546Z,48.30
2019-05-14T14:30:03.776Z,47.70
2019-05-14T14:32:31.557Z,48.50
2019-05-14T14:34:59.393Z,48.70
2019-05-14T14:37:28.623Z,49.20
2019-05-14T14:39:59.180Z,47.00
2019-05-14T14:42:29.338Z,47.30
2019-05-14T14:44:55.624Z,48.20
2019-05-14T14:47:23.393Z,47.80
2019-05-14T14:49:52.080Z,48.10
2019-05-14T14:52:20.224Z,49.40
2019-05-14T14:54:48.888Z,49.90
2019-05-14T14:57:19.911Z,48.80
2019-05-14T14:59:48.596Z,48.20
2019-05-14T15:02:15.892Z,48.00
2019-05-14T15:04:43.718Z,48.60
2019-05-14T15:07:11.560Z,48.60
2019-05-14T15:09:40.518Z,48.20
2019-05-14T15:12:09.174Z,47.30
2019-05-14T15:14:39.491Z,47.90
2019-05-14T15:17:09.295Z,48.60
2019-05-14T15:19:39.313Z,48.20
2019-05-14T15:22:08.628Z,47.70
2019-05-14T15:24:35.357Z,46.50
2019-05-14T15:27:08.271Z,46.70
2019-05-14T15:29:32.999Z,46.40
2019-05-14T15:32:00.798Z,46.20
2019-05-14T15:34:29.702Z,46.50
2019-05-14T15:36:59.781Z,47.40
2019-05-14T15:39:30.119Z,47.60
2019-05-14T15:42:03.849Z,48.00
2019-05-14T15:44:46.413Z,47.60
2019-05-14T15:46:58.772Z,47.70
2019-05-14T15:49:28.377Z,49.00
2019-05-14T15:51:56.380Z,49.20
2019-05-14T15:54:39.166Z,49.30
2019-05-14T15:56:53.692Z,49.50
2019-05-14T15:59:21.492Z,49.50
2019-05-14T16:01:49.283Z,48.80
2019-05-14T16:04:17.114Z,48.30
2019-05-14T16:06:45.001Z,48.60
2019-05-14T16:09:12.790Z,49.00
2019-05-14T16:11:40.608Z,48.60
2019-05-14T16:14:10.286Z,49.10
2019-05-14T16:16:39.222Z,49.70
2019-05-14T16:19:08.197Z,49.50
2019-05-14T16:21:38.349Z,50.40
2019-05-14T16:24:08.073Z,50.50
2019-05-14T16:26:35.293Z,50.30
2019-05-14T16:29:03.083Z,50.80
2019-05-14T16:31:31.552Z,50.00
2019-05-14T16:33:59.695Z,50.10
2019-05-14T16:36:28.911Z,50.10
2019-05-14T16:38:58.518Z,49.90
2019-05-14T16:41:28.896Z,50.20
2019-05-14T16:43:58.576Z,49.60
2019-05-14T16:46:25.619Z,49.70
2019-05-14T16:48:53.688Z,49.60
2019-05-14T16:51:21.532Z,50.60
2019-05-14T16:53:49.323Z,51.20
2019-05-14T16:56:19.113Z,51.50
2019-05-14T16:58:46.650Z,51.60
2019-05-14T17:01:14.479Z,52.30
2019-05-14T17:03:42.282Z,51.90
2019-05-14T17:06:10.096Z,52.10
2019-05-14T17:08:39.477Z,52.10
2019-05-14T17:11:08.894Z,52.00
2019-05-14T17:13:38.162Z,52.10
2019-05-14T17:16:08.314Z,52.20
2019-05-14T17:18:35.777Z,51.90
2019-05-14T17:21:03.663Z,51.90
2019-05-14T17:23:31.452Z,51.90
2019-05-14T17:25:59.257Z,51.20
2019-05-14T17:28:28.601Z,51.50
2019-05-14T17:30:56.544Z,51.50
2019-05-14T17:33:24.412Z,51.70
2019-05-14T17:35:52.192Z,51.90
2019-05-14T17:38:20.340Z,51.60
2019-05-14T17:40:48.822Z,51.50
2019-05-14T17:43:19.038Z,50.90
2019-05-14T17:45:48.205Z,50.90
2019-05-14T17:48:18.205Z,51.30
2019-05-14T17:50:45.459Z,51.60
2019-05-14T17:53:13.259Z,51.70
2019-05-14T17:55:47.030Z,51.80
2019-05-14T17:58:13.228Z,51.70
2019-05-14T18:00:40.402Z,52.40
2019-05-14T18:03:08.727Z,52.60
2019-05-14T18:05:36.627Z,52.90
2019-05-14T18:08:04.441Z,53.40
2019-05-14T18:10:32.219Z,53.80
2019-05-14T18:13:00.065Z,53.80
2019-05-14T18:15:29.246Z,53.70
2019-05-14T18:17:58.866Z,54.00
2019-05-14T18:20:28.705Z,54.00
2019-05-14T18:22:58.293Z,53.80
2019-05-14T18:25:28.875Z,53.80
2019-05-14T18:27:56.164Z,53.80
2019-05-14T18:30:24.075Z,54.10
2019-05-14T18:32:51.875Z,53.90
2019-05-14T18:35:19.778Z,54.30
2019-05-14T18:37:48.251Z,54.40
2019-05-14T18:40:18.228Z,54.80
2019-05-14T18:42:47.999Z,55.30
2019-05-14T18:45:15.575Z,55.80
2019-05-14T18:47:43.420Z,56.50
2019-05-14T18:50:11.381Z,56.60
2019-05-14T18:52:40.205Z,56.70
2019-05-14T18:55:08.612Z,57.00
2019-05-14T18:57:38.220Z,58.40
2019-05-14T19:00:06.172Z,59.10
2019-05-14T19:02:33.948Z,58.10
2019-05-14T19:05:02.280Z,57.70
2019-05-14T19:07:30.051Z,58.00
2019-05-14T19:09:58.713Z,58.90
2019-05-14T19:12:28.846Z,57.90
2019-05-14T19:14:58.726Z,58.20
2019-05-14T19:17:28.156Z,59.00
2019-05-14T19:19:55.368Z,58.80
2019-05-14T19:22:23.164Z,59.10
2019-05-14T19:24:50.973Z,59.10
2019-05-14T19:27:18.835Z,59.30
2019-05-14T19:29:48.424Z,59.40
2019-05-14T19:32:18.942Z,59.60
2019-05-14T19:34:48.724Z,59.90
2019-05-14T19:37:16.111Z,60.40
2019-05-14T19:39:43.904Z,60.80
2019-05-14T19:42:11.689Z,61.20
2019-05-14T19:44:40.408Z,61.20
2019-05-14T19:47:08.400Z,61.70
2019-05-14T19:49:38.203Z,62.00
2019-05-14T19:52:08.100Z,63.40
2019-05-14T19:54:35.403Z,62.60
2019-05-14T19:57:03.259Z,63.00
2019-05-14T19:59:31.143Z,63.10
2019-05-14T20:01:59.095Z,63.80
2019-05-14T20:04:29.207Z,64.10
2019-05-14T20:06:56.514Z,64.70
2019-05-14T20:09:24.375Z,64.80
2019-05-14T20:11:52.225Z,65.30
2019-05-14T20:14:20.025Z,65.50
2019-05-14T20:16:49.131Z,65.60
2019-05-14T20:19:19.146Z,66.20
2019-05-14T20:21:48.152Z,66.10
2019-05-14T20:24:16.104Z,66.60
2019-05-14T20:26:45.700Z,67.10
2019-05-14T20:29:13.755Z,67.20
2019-05-14T20:31:41.540Z,67.50
2019-05-14T20:34:09.326Z,67.60
2019-05-14T20:36:38.990Z,68.10
2019-05-14T20:39:08.658Z,68.20
2019-05-14T20:41:38.539Z,68.60
2019-05-14T20:44:06.303Z,68.80
2019-05-14T20:46:34.143Z,69.40
2019-05-14T20:49:01.987Z,69.50
2019-05-14T20:51:30.477Z,70.10
2019-05-14T20:53:58.352Z,70.60
2019-05-14T20:56:28.262Z,71.10
2019-05-14T20:58:55.752Z,71.30
2019-05-14T21:01:23.575Z,71.70
2019-05-14T21:03:51.456Z,72.10
2019-05-14T21:06:19.240Z,72.70
2019-05-14T21:08:48.933Z,73.00
2019-05-14T21:11:18.886Z,73.70
2019-05-14T21:13:50.035Z,74.10
2019-05-14T21:16:15.636Z,74.40
2019-05-14T21:18:43.443Z,74.80
2019-05-14T21:21:11.261Z,74.70
2019-05-14T21:23:39.098Z,74.10
2019-05-14T21:26:08.583Z,74.80
2019-05-14T21:28:39.026Z,76.50
2019-05-14T21:31:10.144Z,76.00
2019-05-14T21:33:35.536Z,76.60
2019-05-14T21:36:03.331Z,77.40
2019-05-14T21:38:31.088Z,76.80
2019-05-14T21:40:59.227Z,77.10
2019-05-14T21:43:28.947Z,77.20
2019-05-14T21:45:58.510Z,83.60
2019-05-14T21:48:26.015Z,77.90
2019-05-14T21:50:53.820Z,77.60
2019-05-14T21:53:21.604Z,77.70
2019-05-14T21:55:49.379Z,78.10
2019-05-14T21:58:19.423Z,78.10
2019-05-14T22:00:49.643Z,78.10
2019-05-14T22:03:20.536Z,78.80
2019-05-14T22:05:48.298Z,79.20
2019-05-14T22:08:16.837Z,79.60
2019-05-14T22:10:44.600Z,79.80
2019-05-14T22:13:12.391Z,80.30
2019-05-14T22:15:40.188Z,80.20
2019-05-14T22:18:17.352Z,80.50
2019-05-14T22:20:38.615Z,80.60
2019-05-14T22:23:08.789Z,80.20
2019-05-14T22:25:36.219Z,80.10
2019-05-14T22:28:12.262Z,80.20
2019-05-14T22:30:33.596Z,81.20
2019-05-14T22:33:01.372Z,81.10
2019-05-14T22:35:31.283Z,80.80
2019-05-14T22:37:59.667Z,80.20
2019-05-14T22:40:29.160Z,80.20
2019-05-14T22:43:00.005Z,80.50
2019-05-14T22:45:28.316Z,80.60
2019-05-14T22:47:58.594Z,80.50
2019-05-14T22:50:25.800Z,80.50
2019-05-14T22:52:53.579Z,80.20
2019-05-14T22:55:21.351Z,81.10
2019-05-14T22:57:49.140Z,82.00
2019-05-14T23:00:20.748Z,82.80
2019-05-14T23:02:48.601Z,82.90
2019-05-14T23:05:15.991Z,83.40
2019-05-14T23:07:44.064Z,83.80
2019-05-14T23:10:12.012Z,83.60
2019-05-14T23:12:39.792Z,84.10
2019-05-14T23:15:07.737Z,83.60
2019-05-14T23:17:35.550Z,83.70
2019-05-14T23:20:03.525Z,83.90
2019-05-14T23:22:31.289Z,83.50
2019-05-14T23:24:59.307Z,83.70
2019-05-14T23:27:29.226Z,83.90
2019-05-14T23:29:58.595Z,83.50
2019-05-14T23:32:28.391Z,83.80
2019-05-14T23:34:55.721Z,84.80
2019-05-14T23:37:23.483Z,85.10
2019-05-14T23:39:51.835Z,85.70
2019-05-14T23:42:19.604Z,85.80
2019-05-14T23:44:49.169Z,86.60
2019-05-14T23:47:19.305Z,86.60
2019-05-14T23:49:48.371Z,85.90
2019-05-14T23:52:16.284Z,86.60
2019-05-14T23:54:47.963Z,86.80
2019-05-14T23:57:15.287Z,86.60
2019-05-14T23:59:43.080Z,86.30
